ROMMA est une association bénévole à but non lucratif. Votre soutien est indispensable : ADHERER à ROMMA ou FAIRE un DON

Die - (26, Drôme)

Diois (400 m)   Longitude: 5° 21' 55"E   Latitude: 44° 45' 16"N Station partenaire n°159
 

Détail journalier du     <<     >>

Température Precipitation Humidité Pression Vent Dir Rafale Dir. rafale Ensol.
Heure (°C) (mm) (%) (hPa) (km/h) (km/h) (min)
01:00 -3.0094103403SSO0
02:00 -3.2095103403SSO0
03:00 -3.7094103403SSO0
04:00 -3.5095103403SSO0
05:00 -4.1094103300SSO0
06:00 -4.3094103300SSO0
07:00 -4.5094103402SSO0
08:00 -4.8094103402SSO0
09:00 -4.9094103500SSO0
10:00 -2.6096103502SSO30
11:00 0.409210351SSO8O60
12:00 2.708710341O6NO70
13:00 5.407610342SSO5SSO50
14:00 4.108310331SO5SO10
15:00 4.6084103305SO0
16:00 4.808310331SO3SO0
17:00 2.6088103305SO0
18:00 0.4092103303SO0
19:00 -0.4094103402SO0
20:00 -0.6095103403SO0
21:00 -0.709510341SO3SO0
22:00 -0.8095103403SO0
23:00 -0.9096103403SO0
minuit -1.3095103402SO0

Graphique du 02-01-2020

 

Serveur OMMA